sensor_id;sensor_type;location;lat;lon;timestamp;noise_LAeq;noise_LA_min;noise_LA_max;noise_LA01;noise_LA95
64077;Laerm;51039;49.696;10.808;2022-12-16T00:00:06;39.58;38.19;40.91;;
64077;Laerm;51039;49.696;10.808;2022-12-16T00:02:35;39.58;38.19;40.86;;
64077;Laerm;51039;49.696;10.808;2022-12-16T00:05:01;39.57;38.27;40.81;;
64077;Laerm;51039;49.696;10.808;2022-12-16T00:07:26;39.55;38.03;40.74;;
64077;Laerm;51039;49.696;10.808;2022-12-16T00:09:52;39.53;38.07;40.94;;
64077;Laerm;51039;49.696;10.808;2022-12-16T00:12:17;39.52;38.22;40.84;;
64077;Laerm;51039;49.696;10.808;2022-12-16T00:14:42;39.50;38.05;40.86;;
64077;Laerm;51039;49.696;10.808;2022-12-16T00:17:08;39.51;38.20;40.90;;
64077;Laerm;51039;49.696;10.808;2022-12-16T00:19:33;39.49;38.13;40.77;;
64077;Laerm;51039;49.696;10.808;2022-12-16T00:21:59;39.49;38.17;40.96;;
64077;Laerm;51039;49.696;10.808;2022-12-16T00:24:24;39.47;38.10;40.75;;
64077;Laerm;51039;49.696;10.808;2022-12-16T00:26:49;39.47;37.93;40.72;;
64077;Laerm;51039;49.696;10.808;2022-12-16T00:29:15;39.47;38.15;40.65;;
64077;Laerm;51039;49.696;10.808;2022-12-16T00:31:41;39.46;38.12;40.72;;
64077;Laerm;51039;49.696;10.808;2022-12-16T00:34:06;39.44;38.08;40.69;;
64077;Laerm;51039;49.696;10.808;2022-12-16T00:36:32;39.42;37.89;40.63;;
64077;Laerm;51039;49.696;10.808;2022-12-16T00:38:57;39.44;38.05;40.72;;
64077;Laerm;51039;49.696;10.808;2022-12-16T00:41:23;39.41;38.14;40.69;;
64077;Laerm;51039;49.696;10.808;2022-12-16T00:43:48;39.41;38.13;40.88;;
64077;Laerm;51039;49.696;10.808;2022-12-16T00:46:13;39.42;37.91;40.59;;
64077;Laerm;51039;49.696;10.808;2022-12-16T00:48:39;39.43;37.76;40.58;;
64077;Laerm;51039;49.696;10.808;2022-12-16T00:51:04;39.45;38.13;40.98;;
64077;Laerm;51039;49.696;10.808;2022-12-16T00:53:29;39.55;38.32;40.80;;
64077;Laerm;51039;49.696;10.808;2022-12-16T00:56:06;39.75;38.19;41.00;;
64077;Laerm;51039;49.696;10.808;2022-12-16T00:58:32;39.79;38.53;41.18;;
64077;Laerm;51039;49.696;10.808;2022-12-16T01:00:57;39.85;38.45;41.35;;
64077;Laerm;51039;49.696;10.808;2022-12-16T01:03:23;39.84;38.65;41.07;;
64077;Laerm;51039;49.696;10.808;2022-12-16T01:05:48;39.83;38.50;41.13;;
64077;Laerm;51039;49.696;10.808;2022-12-16T01:08:13;39.88;38.48;41.11;;
64077;Laerm;51039;49.696;10.808;2022-12-16T01:10:39;40.00;38.59;41.51;;
64077;Laerm;51039;49.696;10.808;2022-12-16T01:13:04;40.07;38.76;41.20;;
64077;Laerm;51039;49.696;10.808;2022-12-16T01:15:29;40.06;38.55;41.37;;
64077;Laerm;51039;49.696;10.808;2022-12-16T01:17:55;40.05;38.78;41.30;;
64077;Laerm;51039;49.696;10.808;2022-12-16T01:20:20;40.06;38.60;41.33;;
64077;Laerm;51039;49.696;10.808;2022-12-16T01:22:45;40.06;38.53;41.33;;
64077;Laerm;51039;49.696;10.808;2022-12-16T01:25:11;40.03;38.59;41.13;;
64077;Laerm;51039;49.696;10.808;2022-12-16T01:27:39;40.04;38.70;41.15;;
64077;Laerm;51039;49.696;10.808;2022-12-16T01:30:05;40.01;38.54;41.30;;
64077;Laerm;51039;49.696;10.808;2022-12-16T01:32:31;39.96;38.60;41.38;;
64077;Laerm;51039;49.696;10.808;2022-12-16T01:34:56;39.95;38.64;41.28;;
64077;Laerm;51039;49.696;10.808;2022-12-16T01:37:22;39.94;38.27;41.23;;
64077;Laerm;51039;49.696;10.808;2022-12-16T01:39:48;40.00;38.69;41.34;;
64077;Laerm;51039;49.696;10.808;2022-12-16T01:42:15;40.08;38.77;41.33;;
64077;Laerm;51039;49.696;10.808;2022-12-16T01:44:42;40.09;38.88;41.16;;
64077;Laerm;51039;49.696;10.808;2022-12-16T01:47:17;40.03;38.78;41.28;;
64077;Laerm;51039;49.696;10.808;2022-12-16T01:49:50;39.92;38.72;41.15;;
64077;Laerm;51039;49.696;10.808;2022-12-16T01:52:21;39.89;38.59;41.15;;
64077;Laerm;51039;49.696;10.808;2022-12-16T01:58:21;39.85;38.50;41.11;;
64077;Laerm;51039;49.696;10.808;2022-12-16T02:00:46;39.76;38.44;41.18;;
64077;Laerm;51039;49.696;10.808;2022-12-16T02:03:12;39.65;38.16;41.06;;
64077;Laerm;51039;49.696;10.808;2022-12-16T02:05:39;39.51;38.26;40.91;;
64077;Laerm;51039;49.696;10.808;2022-12-16T02:08:13;39.45;38.26;40.62;;
64077;Laerm;51039;49.696;10.808;2022-12-16T02:16:17;39.35;38.02;40.60;;
64077;Laerm;51039;49.696;10.808;2022-12-16T02:19:18;39.32;37.98;40.56;;
64077;Laerm;51039;49.696;10.808;2022-12-16T02:25:19;39.13;37.89;40.19;;
64077;Laerm;51039;49.696;10.808;2022-12-16T02:28:04;39.11;37.80;40.22;;
64077;Laerm;51039;49.696;10.808;2022-12-16T02:30:43;39.25;38.07;40.32;;
64077;Laerm;51039;49.696;10.808;2022-12-16T02:35:46;39.28;38.04;40.58;;
64077;Laerm;51039;49.696;10.808;2022-12-16T02:38:24;39.23;38.00;40.46;;
64077;Laerm;51039;49.696;10.808;2022-12-16T02:40:56;39.13;37.86;40.26;;
64077;Laerm;51039;49.696;10.808;2022-12-16T02:43:54;38.64;37.24;39.86;;
64077;Laerm;51039;49.696;10.808;2022-12-16T02:46:25;38.24;37.01;39.41;;
64077;Laerm;51039;49.696;10.808;2022-12-16T02:48:51;38.12;37.01;39.21;;
64077;Laerm;51039;49.696;10.808;2022-12-16T02:51:17;38.25;37.03;39.50;;
64077;Laerm;51039;49.696;10.808;2022-12-16T02:53:44;38.55;37.35;39.85;;
64077;Laerm;51039;49.696;10.808;2022-12-16T02:58:46;37.66;36.22;38.89;;
64077;Laerm;51039;49.696;10.808;2022-12-16T03:01:35;37.19;35.87;38.57;;
64077;Laerm;51039;49.696;10.808;2022-12-16T03:04:18;36.86;35.45;38.13;;
64077;Laerm;51039;49.696;10.808;2022-12-16T03:06:48;36.61;35.39;37.70;;
64077;Laerm;51039;49.696;10.808;2022-12-16T03:09:20;36.44;35.23;37.66;;
64077;Laerm;51039;49.696;10.808;2022-12-16T03:11:48;36.27;35.04;37.39;;
64077;Laerm;51039;49.696;10.808;2022-12-16T03:14:17;36.08;34.81;37.17;;
64077;Laerm;51039;49.696;10.808;2022-12-16T03:16:45;35.92;34.80;37.19;;
64077;Laerm;51039;49.696;10.808;2022-12-16T03:19:12;35.80;34.63;36.80;;
64077;Laerm;51039;49.696;10.808;2022-12-16T03:21:44;35.69;34.50;36.89;;
64077;Laerm;51039;49.696;10.808;2022-12-16T03:24:13;35.61;34.41;36.79;;
64077;Laerm;51039;49.696;10.808;2022-12-16T03:29:46;35.48;34.10;36.55;;
64077;Laerm;51039;49.696;10.808;2022-12-16T03:32:20;35.42;34.13;36.49;;
64077;Laerm;51039;49.696;10.808;2022-12-16T03:34:55;35.38;34.20;36.57;;
64077;Laerm;51039;49.696;10.808;2022-12-16T03:37:27;35.32;34.22;36.60;;
64077;Laerm;51039;49.696;10.808;2022-12-16T03:39:58;35.25;34.15;36.26;;
64077;Laerm;51039;49.696;10.808;2022-12-16T03:42:25;35.22;33.91;36.26;;
64077;Laerm;51039;49.696;10.808;2022-12-16T03:44:51;35.17;34.06;36.37;;
64077;Laerm;51039;49.696;10.808;2022-12-16T03:47:16;35.12;34.05;36.26;;
64077;Laerm;51039;49.696;10.808;2022-12-16T03:49:41;35.09;33.91;36.08;;
64077;Laerm;51039;49.696;10.808;2022-12-16T03:52:07;35.04;33.83;36.29;;
64077;Laerm;51039;49.696;10.808;2022-12-16T03:54:32;35.01;33.87;36.09;;
64077;Laerm;51039;49.696;10.808;2022-12-16T03:56:58;34.96;33.68;36.06;;
64077;Laerm;51039;49.696;10.808;2022-12-16T03:59:23;34.94;33.67;36.04;;
64077;Laerm;51039;49.696;10.808;2022-12-16T04:01:50;34.90;33.78;36.06;;
64077;Laerm;51039;49.696;10.808;2022-12-16T04:04:16;34.86;33.60;36.08;;
64077;Laerm;51039;49.696;10.808;2022-12-16T04:06:41;34.82;33.49;36.01;;
64077;Laerm;51039;49.696;10.808;2022-12-16T04:09:07;34.79;33.66;35.91;;
64077;Laerm;51039;49.696;10.808;2022-12-16T04:11:32;34.75;33.65;35.78;;
64077;Laerm;51039;49.696;10.808;2022-12-16T04:14:16;34.72;33.63;35.80;;
64077;Laerm;51039;49.696;10.808;2022-12-16T04:17:00;34.69;33.55;35.75;;
64077;Laerm;51039;49.696;10.808;2022-12-16T04:19:45;34.66;33.52;35.69;;
64077;Laerm;51039;49.696;10.808;2022-12-16T04:22:35;34.63;33.35;35.87;;
64077;Laerm;51039;49.696;10.808;2022-12-16T04:25:27;34.59;33.32;35.77;;
64077;Laerm;51039;49.696;10.808;2022-12-16T04:27:54;34.56;33.11;35.87;;
64077;Laerm;51039;49.696;10.808;2022-12-16T04:30:19;34.54;33.39;35.60;;
64077;Laerm;51039;49.696;10.808;2022-12-16T04:32:47;34.52;33.33;35.71;;
64077;Laerm;51039;49.696;10.808;2022-12-16T04:35:33;34.48;33.29;35.59;;
64077;Laerm;51039;49.696;10.808;2022-12-16T04:38:17;34.46;33.32;35.55;;
64077;Laerm;51039;49.696;10.808;2022-12-16T04:41:01;34.44;33.19;35.72;;
64077;Laerm;51039;49.696;10.808;2022-12-16T04:43:45;34.41;33.08;35.76;;
64077;Laerm;51039;49.696;10.808;2022-12-16T04:46:29;34.40;33.32;35.61;;
64077;Laerm;51039;49.696;10.808;2022-12-16T04:49:13;34.38;33.16;35.44;;
64077;Laerm;51039;49.696;10.808;2022-12-16T04:51:57;34.36;33.16;35.59;;
64077;Laerm;51039;49.696;10.808;2022-12-16T04:54:41;34.34;33.19;35.47;;
64077;Laerm;51039;49.696;10.808;2022-12-16T04:57:25;34.32;33.01;35.33;;
64077;Laerm;51039;49.696;10.808;2022-12-16T05:00:09;34.31;33.19;35.39;;
64077;Laerm;51039;49.696;10.808;2022-12-16T05:02:53;34.29;33.09;35.37;;
64077;Laerm;51039;49.696;10.808;2022-12-16T05:05:37;34.28;33.09;35.46;;
64077;Laerm;51039;49.696;10.808;2022-12-16T05:08:20;34.25;33.04;35.42;;
64077;Laerm;51039;49.696;10.808;2022-12-16T05:11:04;34.24;33.12;35.37;;
64077;Laerm;51039;49.696;10.808;2022-12-16T05:13:49;34.21;32.92;35.30;;
64077;Laerm;51039;49.696;10.808;2022-12-16T05:16:33;34.20;33.01;35.38;;
64077;Laerm;51039;49.696;10.808;2022-12-16T05:19:16;34.18;32.95;35.34;;
64077;Laerm;51039;49.696;10.808;2022-12-16T05:22:00;34.16;33.08;35.13;;
64077;Laerm;51039;49.696;10.808;2022-12-16T05:24:44;34.15;32.99;35.32;;
64077;Laerm;51039;49.696;10.808;2022-12-16T05:27:28;34.14;33.06;35.27;;
64077;Laerm;51039;49.696;10.808;2022-12-16T05:30:12;34.12;33.01;35.15;;
64077;Laerm;51039;49.696;10.808;2022-12-16T05:32:56;34.11;32.97;35.21;;
64077;Laerm;51039;49.696;10.808;2022-12-16T05:35:40;34.10;32.94;35.39;;
64077;Laerm;51039;49.696;10.808;2022-12-16T05:38:24;34.09;32.83;35.39;;
64077;Laerm;51039;49.696;10.808;2022-12-16T05:41:08;34.08;32.81;35.26;;
64077;Laerm;51039;49.696;10.808;2022-12-16T05:43:52;34.08;32.94;35.15;;
64077;Laerm;51039;49.696;10.808;2022-12-16T05:46:36;34.06;32.65;35.17;;
64077;Laerm;51039;49.696;10.808;2022-12-16T05:49:20;34.07;32.94;35.26;;
64077;Laerm;51039;49.696;10.808;2022-12-16T05:52:04;34.06;32.86;35.33;;
64077;Laerm;51039;49.696;10.808;2022-12-16T05:54:47;34.07;32.79;35.19;;
64077;Laerm;51039;49.696;10.808;2022-12-16T05:57:31;34.07;32.90;35.04;;
64077;Laerm;51039;49.696;10.808;2022-12-16T06:00:15;34.07;33.00;35.24;;
64077;Laerm;51039;49.696;10.808;2022-12-16T06:02:59;34.07;32.87;35.31;;
64077;Laerm;51039;49.696;10.808;2022-12-16T06:05:43;34.08;32.74;35.30;;
64077;Laerm;51039;49.696;10.808;2022-12-16T06:08:27;34.08;32.88;35.19;;
64077;Laerm;51039;49.696;10.808;2022-12-16T06:11:11;34.08;32.92;35.20;;
64077;Laerm;51039;49.696;10.808;2022-12-16T06:13:55;34.09;32.82;35.40;;
64077;Laerm;51039;49.696;10.808;2022-12-16T06:16:39;34.10;32.82;35.31;;
64077;Laerm;51039;49.696;10.808;2022-12-16T06:19:23;34.11;32.92;35.20;;
64077;Laerm;51039;49.696;10.808;2022-12-16T06:22:07;34.13;32.86;35.21;;
64077;Laerm;51039;49.696;10.808;2022-12-16T06:24:51;34.15;33.08;35.30;;
64077;Laerm;51039;49.696;10.808;2022-12-16T06:27:35;34.16;32.97;35.24;;
64077;Laerm;51039;49.696;10.808;2022-12-16T06:30:19;34.17;32.86;35.24;;
64077;Laerm;51039;49.696;10.808;2022-12-16T06:33:02;34.18;32.95;35.37;;
64077;Laerm;51039;49.696;10.808;2022-12-16T06:35:46;34.20;33.01;35.38;;
64077;Laerm;51039;49.696;10.808;2022-12-16T06:38:30;34.20;32.85;35.31;;
64077;Laerm;51039;49.696;10.808;2022-12-16T06:41:14;34.21;33.13;35.24;;
64077;Laerm;51039;49.696;10.808;2022-12-16T06:43:58;34.22;32.90;35.34;;
64077;Laerm;51039;49.696;10.808;2022-12-16T06:46:42;34.23;33.09;35.32;;
64077;Laerm;51039;49.696;10.808;2022-12-16T06:49:26;34.24;33.16;35.31;;
64077;Laerm;51039;49.696;10.808;2022-12-16T06:52:10;34.25;32.96;35.47;;
64077;Laerm;51039;49.696;10.808;2022-12-16T06:54:54;34.26;33.22;35.45;;
64077;Laerm;51039;49.696;10.808;2022-12-16T06:57:38;34.26;32.67;35.41;;
64077;Laerm;51039;49.696;10.808;2022-12-16T07:00:22;34.26;33.16;35.44;;
64077;Laerm;51039;49.696;10.808;2022-12-16T07:03:06;34.27;32.96;35.33;;
64077;Laerm;51039;49.696;10.808;2022-12-16T07:05:53;34.28;33.00;35.34;;
64077;Laerm;51039;49.696;10.808;2022-12-16T07:08:37;34.27;33.10;35.33;;
64077;Laerm;51039;49.696;10.808;2022-12-16T07:11:21;34.26;33.01;35.48;;
64077;Laerm;51039;49.696;10.808;2022-12-16T07:14:05;34.25;33.19;35.43;;
64077;Laerm;51039;49.696;10.808;2022-12-16T07:16:49;34.24;32.66;35.39;;
64077;Laerm;51039;49.696;10.808;2022-12-16T07:19:33;34.22;33.03;35.46;;
64077;Laerm;51039;49.696;10.808;2022-12-16T07:22:17;34.22;33.12;35.31;;
64077;Laerm;51039;49.696;10.808;2022-12-16T07:25:01;34.20;33.05;35.32;;
64077;Laerm;51039;49.696;10.808;2022-12-16T07:27:45;34.20;32.89;35.27;;
64077;Laerm;51039;49.696;10.808;2022-12-16T07:30:29;34.20;33.01;35.40;;
64077;Laerm;51039;49.696;10.808;2022-12-16T07:33:13;34.20;32.96;35.25;;
64077;Laerm;51039;49.696;10.808;2022-12-16T07:35:57;34.19;32.87;35.35;;
64077;Laerm;51039;49.696;10.808;2022-12-16T07:38:41;34.18;33.07;35.29;;
64077;Laerm;51039;49.696;10.808;2022-12-16T07:41:25;34.15;32.90;35.28;;
64077;Laerm;51039;49.696;10.808;2022-12-16T07:44:09;34.14;32.99;35.37;;
64077;Laerm;51039;49.696;10.808;2022-12-16T07:46:53;34.13;32.93;35.17;;
64077;Laerm;51039;49.696;10.808;2022-12-16T07:49:37;34.11;32.91;35.26;;
64077;Laerm;51039;49.696;10.808;2022-12-16T07:52:21;34.10;32.77;35.23;;
64077;Laerm;51039;49.696;10.808;2022-12-16T07:55:06;34.08;32.92;35.16;;
64077;Laerm;51039;49.696;10.808;2022-12-16T07:57:50;34.06;32.82;35.17;;
64077;Laerm;51039;49.696;10.808;2022-12-16T08:00:34;34.05;32.52;35.30;;
64077;Laerm;51039;49.696;10.808;2022-12-16T08:03:18;34.03;32.94;35.23;;
64077;Laerm;51039;49.696;10.808;2022-12-16T08:06:02;34.04;32.71;35.04;;
64077;Laerm;51039;49.696;10.808;2022-12-16T08:08:46;34.02;32.74;35.06;;
64077;Laerm;51039;49.696;10.808;2022-12-16T08:11:30;34.01;32.88;35.36;;
64077;Laerm;51039;49.696;10.808;2022-12-16T08:14:13;34.00;32.61;35.10;;
64077;Laerm;51039;49.696;10.808;2022-12-16T08:16:57;33.99;32.88;35.05;;
64077;Laerm;51039;49.696;10.808;2022-12-16T08:19:43;33.98;32.85;35.22;;
64077;Laerm;51039;49.696;10.808;2022-12-16T08:22:26;33.96;32.81;35.02;;
64077;Laerm;51039;49.696;10.808;2022-12-16T08:25:10;33.94;32.69;35.01;;
64077;Laerm;51039;49.696;10.808;2022-12-16T08:27:55;33.91;32.78;35.35;;
64077;Laerm;51039;49.696;10.808;2022-12-16T08:30:39;33.88;32.59;35.13;;
64077;Laerm;51039;49.696;10.808;2022-12-16T08:33:22;33.87;32.57;34.97;;
64077;Laerm;51039;49.696;10.808;2022-12-16T08:36:07;33.84;32.64;35.20;;
64077;Laerm;51039;49.696;10.808;2022-12-16T08:38:50;33.83;32.59;34.96;;
64077;Laerm;51039;49.696;10.808;2022-12-16T08:41:34;33.80;32.60;34.96;;
64077;Laerm;51039;49.696;10.808;2022-12-16T08:44:18;33.79;32.56;34.95;;
64077;Laerm;51039;49.696;10.808;2022-12-16T08:47:02;33.78;32.56;34.90;;
64077;Laerm;51039;49.696;10.808;2022-12-16T08:49:47;33.77;32.42;34.99;;
64077;Laerm;51039;49.696;10.808;2022-12-16T08:52:31;33.75;32.56;34.82;;
64077;Laerm;51039;49.696;10.808;2022-12-16T08:55:14;33.75;32.55;34.72;;
64077;Laerm;51039;49.696;10.808;2022-12-16T08:57:58;33.76;32.67;35.20;;
64077;Laerm;51039;49.696;10.808;2022-12-16T09:00:42;33.76;32.55;34.92;;
64077;Laerm;51039;49.696;10.808;2022-12-16T09:03:26;33.79;32.63;35.00;;
64077;Laerm;51039;49.696;10.808;2022-12-16T09:06:10;33.87;32.59;35.03;;
64077;Laerm;51039;49.696;10.808;2022-12-16T09:08:54;34.08;32.83;35.18;;
64077;Laerm;51039;49.696;10.808;2022-12-16T09:11:52;34.62;33.34;36.31;;
64077;Laerm;51039;49.696;10.808;2022-12-16T09:14:35;35.45;33.87;36.88;;
64077;Laerm;51039;49.696;10.808;2022-12-16T09:17:19;36.57;35.16;38.30;;
64077;Laerm;51039;49.696;10.808;2022-12-16T09:20:03;37.74;35.95;39.49;;
64077;Laerm;51039;49.696;10.808;2022-12-16T09:22:48;38.95;37.34;40.38;;
64077;Laerm;51039;49.696;10.808;2022-12-16T09:25:32;39.76;38.32;41.35;;
64077;Laerm;51039;49.696;10.808;2022-12-16T09:28:15;40.00;38.63;41.17;;
64077;Laerm;51039;49.696;10.808;2022-12-16T09:30:59;39.72;38.25;41.13;;
64077;Laerm;51039;49.696;10.808;2022-12-16T09:33:43;39.39;37.55;40.76;;
64077;Laerm;51039;49.696;10.808;2022-12-16T09:36:27;39.16;37.70;40.63;;
64077;Laerm;51039;49.696;10.808;2022-12-16T09:39:11;38.93;37.45;40.19;;
64077;Laerm;51039;49.696;10.808;2022-12-16T09:41:59;38.75;37.47;40.09;;
64077;Laerm;51039;49.696;10.808;2022-12-16T09:45:07;38.54;37.05;40.06;;
64077;Laerm;51039;49.696;10.808;2022-12-16T09:48:14;38.41;36.87;39.76;;
64077;Laerm;51039;49.696;10.808;2022-12-16T09:51:05;38.28;36.70;40.04;;
64077;Laerm;51039;49.696;10.808;2022-12-16T09:53:52;38.13;36.77;39.52;;
64077;Laerm;51039;49.696;10.808;2022-12-16T09:56:39;37.96;36.56;39.28;;
64077;Laerm;51039;49.696;10.808;2022-12-16T09:59:35;37.82;36.25;39.23;;
64077;Laerm;51039;49.696;10.808;2022-12-16T10:02:20;37.68;36.18;38.99;;
64077;Laerm;51039;49.696;10.808;2022-12-16T10:05:12;37.51;36.26;38.79;;
64077;Laerm;51039;49.696;10.808;2022-12-16T10:11:22;37.33;35.77;38.78;;
64077;Laerm;51039;49.696;10.808;2022-12-16T10:14:13;37.22;35.83;38.57;;
64077;Laerm;51039;49.696;10.808;2022-12-16T10:17:23;37.07;35.31;38.47;;
64077;Laerm;51039;49.696;10.808;2022-12-16T10:20:28;36.95;35.44;38.53;;
64077;Laerm;51039;49.696;10.808;2022-12-16T10:23:24;36.80;35.33;38.24;;
64077;Laerm;51039;49.696;10.808;2022-12-16T10:26:15;36.75;35.12;38.03;;
64077;Laerm;51039;49.696;10.808;2022-12-16T10:29:18;36.76;35.39;38.10;;
64077;Laerm;51039;49.696;10.808;2022-12-16T10:32:29;36.72;35.36;38.03;;
64077;Laerm;51039;49.696;10.808;2022-12-16T10:35:24;36.66;35.17;37.95;;
64077;Laerm;51039;49.696;10.808;2022-12-16T10:38:19;36.59;35.31;37.83;;
64077;Laerm;51039;49.696;10.808;2022-12-16T10:41:05;36.61;35.00;37.95;;
64077;Laerm;51039;49.696;10.808;2022-12-16T10:43:50;36.63;35.05;37.93;;
64077;Laerm;51039;49.696;10.808;2022-12-16T10:46:35;36.61;35.26;38.01;;
64077;Laerm;51039;49.696;10.808;2022-12-16T10:49:19;36.52;35.15;39.98;;
64077;Laerm;51039;49.696;10.808;2022-12-16T10:52:04;36.51;35.11;37.75;;
64077;Laerm;51039;49.696;10.808;2022-12-16T10:55:02;36.51;35.13;37.76;;
64077;Laerm;51039;49.696;10.808;2022-12-16T10:58:01;36.51;35.09;39.78;;
64077;Laerm;51039;49.696;10.808;2022-12-16T11:00:50;36.56;35.13;38.06;;
64077;Laerm;51039;49.696;10.808;2022-12-16T11:03:39;36.63;34.97;38.10;;
64077;Laerm;51039;49.696;10.808;2022-12-16T11:06:34;36.61;35.08;38.03;;
64077;Laerm;51039;49.696;10.808;2022-12-16T11:09:31;36.60;35.11;38.09;;
64077;Laerm;51039;49.696;10.808;2022-12-16T11:12:30;36.57;35.17;38.00;;
64077;Laerm;51039;49.696;10.808;2022-12-16T11:18:07;36.50;35.05;37.87;;
64077;Laerm;51039;49.696;10.808;2022-12-16T11:24:14;36.50;34.94;37.81;;
64077;Laerm;51039;49.696;10.808;2022-12-16T11:27:01;36.51;34.97;37.78;;
64077;Laerm;51039;49.696;10.808;2022-12-16T11:29:50;36.38;34.91;38.20;;
64077;Laerm;51039;49.696;10.808;2022-12-16T11:32:36;36.31;34.90;37.78;;
64077;Laerm;51039;49.696;10.808;2022-12-16T11:35:25;36.32;34.62;37.94;;
64077;Laerm;51039;49.696;10.808;2022-12-16T11:38:18;36.37;34.48;38.23;;
64077;Laerm;51039;49.696;10.808;2022-12-16T11:41:04;36.34;34.97;37.88;;
64077;Laerm;51039;49.696;10.808;2022-12-16T11:43:51;36.26;34.80;37.60;;
64077;Laerm;51039;49.696;10.808;2022-12-16T11:46:35;36.23;34.81;37.60;;
64077;Laerm;51039;49.696;10.808;2022-12-16T11:49:27;36.22;34.76;37.61;;
64077;Laerm;51039;49.696;10.808;2022-12-16T11:52:16;36.16;34.65;37.48;;
64077;Laerm;51039;49.696;10.808;2022-12-16T11:55:23;36.13;34.72;37.58;;
64077;Laerm;51039;49.696;10.808;2022-12-16T11:58:19;36.14;34.73;37.65;;
64077;Laerm;51039;49.696;10.808;2022-12-16T12:01:58;36.09;34.56;43.92;;
64077;Laerm;51039;49.696;10.808;2022-12-16T12:04:22;36.08;34.66;37.49;;
64077;Laerm;51039;49.696;10.808;2022-12-16T12:10:00;36.07;34.56;37.53;;
64077;Laerm;51039;49.696;10.808;2022-12-16T12:16:23;36.07;34.71;37.45;;
64077;Laerm;51039;49.696;10.808;2022-12-16T12:19:18;36.03;34.66;37.92;;
64077;Laerm;51039;49.696;10.808;2022-12-16T12:22:14;36.08;34.71;37.39;;
64077;Laerm;51039;49.696;10.808;2022-12-16T12:28:43;36.11;34.26;37.45;;
64077;Laerm;51039;49.696;10.808;2022-12-16T12:34:46;36.12;34.42;37.45;;
64077;Laerm;51039;49.696;10.808;2022-12-16T12:40:49;36.10;34.53;37.78;;
64077;Laerm;51039;49.696;10.808;2022-12-16T12:46:38;36.06;34.56;37.79;;
64077;Laerm;51039;49.696;10.808;2022-12-16T12:49:44;36.14;34.46;37.32;;
64077;Laerm;51039;49.696;10.808;2022-12-16T12:56:05;36.07;34.62;38.76;;
64077;Laerm;51039;49.696;10.808;2022-12-16T12:58:54;36.02;34.44;37.53;;
64077;Laerm;51039;49.696;10.808;2022-12-16T13:01:41;36.03;34.51;37.43;;
64077;Laerm;51039;49.696;10.808;2022-12-16T13:04:28;36.05;34.37;37.43;;
64077;Laerm;51039;49.696;10.808;2022-12-16T13:07:12;36.13;34.65;38.36;;
64077;Laerm;51039;49.696;10.808;2022-12-16T13:22:33;36.18;34.82;37.67;;
64077;Laerm;51039;49.696;10.808;2022-12-16T13:25:49;36.16;34.45;37.60;;
64077;Laerm;51039;49.696;10.808;2022-12-16T13:28:39;36.22;34.82;37.51;;
64077;Laerm;51039;49.696;10.808;2022-12-16T13:31:25;36.19;34.79;37.44;;
64077;Laerm;51039;49.696;10.808;2022-12-16T13:34:21;36.22;34.84;37.82;;
64077;Laerm;51039;49.696;10.808;2022-12-16T13:37:20;36.19;34.86;37.80;;
64077;Laerm;51039;49.696;10.808;2022-12-16T13:40:16;36.25;34.71;37.76;;
64077;Laerm;51039;49.696;10.808;2022-12-16T13:43:01;36.35;34.82;37.64;;
64077;Laerm;51039;49.696;10.808;2022-12-16T13:48:48;36.20;34.58;38.00;;
64077;Laerm;51039;49.696;10.808;2022-12-16T13:54:38;36.17;34.65;37.52;;
64077;Laerm;51039;49.696;10.808;2022-12-16T13:57:27;36.13;34.51;37.48;;
64077;Laerm;51039;49.696;10.808;2022-12-16T14:00:18;36.12;34.49;37.36;;
64077;Laerm;51039;49.696;10.808;2022-12-16T14:03:10;36.00;34.68;37.43;;
64077;Laerm;51039;49.696;10.808;2022-12-16T14:05:56;35.98;34.48;37.28;;
64077;Laerm;51039;49.696;10.808;2022-12-16T14:08:41;35.99;34.55;41.33;;
64077;Laerm;51039;49.696;10.808;2022-12-16T14:11:41;35.93;34.43;37.26;;
64077;Laerm;51039;49.696;10.808;2022-12-16T14:14:34;35.92;34.48;37.32;;
64077;Laerm;51039;49.696;10.808;2022-12-16T14:17:34;35.98;34.56;37.39;;
64077;Laerm;51039;49.696;10.808;2022-12-16T14:20:28;36.00;34.59;37.44;;
64077;Laerm;51039;49.696;10.808;2022-12-16T14:23:40;36.00;34.43;37.45;;
64077;Laerm;51039;49.696;10.808;2022-12-16T14:26:27;35.97;34.34;37.23;;
64077;Laerm;51039;49.696;10.808;2022-12-16T14:29:22;35.94;34.46;37.58;;
64077;Laerm;51039;49.696;10.808;2022-12-16T14:32:26;35.98;34.48;37.46;;
64077;Laerm;51039;49.696;10.808;2022-12-16T14:35:19;35.94;34.31;37.29;;
64077;Laerm;51039;49.696;10.808;2022-12-16T14:38:22;35.89;34.21;37.43;;
64077;Laerm;51039;49.696;10.808;2022-12-16T14:41:10;35.89;34.23;37.41;;
64077;Laerm;51039;49.696;10.808;2022-12-16T14:43:54;35.95;34.64;37.57;;
64077;Laerm;51039;49.696;10.808;2022-12-16T14:46:38;35.97;34.51;37.45;;
64077;Laerm;51039;49.696;10.808;2022-12-16T14:49:25;35.98;34.27;37.24;;
64077;Laerm;51039;49.696;10.808;2022-12-16T14:52:16;36.00;34.44;39.07;;
64077;Laerm;51039;49.696;10.808;2022-12-16T14:58:08;36.02;34.36;37.38;;
64077;Laerm;51039;49.696;10.808;2022-12-16T15:00:53;35.99;34.62;37.42;;
64077;Laerm;51039;49.696;10.808;2022-12-16T15:03:43;36.02;34.30;37.57;;
64077;Laerm;51039;49.696;10.808;2022-12-16T15:06:31;36.03;34.57;37.42;;
64077;Laerm;51039;49.696;10.808;2022-12-16T15:09:34;36.13;34.55;42.45;;
64077;Laerm;51039;49.696;10.808;2022-12-16T15:12:23;36.21;34.64;39.41;;
64077;Laerm;51039;49.696;10.808;2022-12-16T15:15:12;36.18;34.50;37.56;;
64077;Laerm;51039;49.696;10.808;2022-12-16T15:17:57;36.22;34.48;40.19;;
64077;Laerm;51039;49.696;10.808;2022-12-16T15:20:53;36.23;34.57;37.49;;
64077;Laerm;51039;49.696;10.808;2022-12-16T15:23:43;36.25;34.80;37.55;;
64077;Laerm;51039;49.696;10.808;2022-12-16T15:26:33;36.33;34.89;37.90;;
64077;Laerm;51039;49.696;10.808;2022-12-16T15:29:37;36.57;34.99;37.81;;
64077;Laerm;51039;49.696;10.808;2022-12-16T15:35:10;36.56;35.03;37.87;;
64077;Laerm;51039;49.696;10.808;2022-12-16T15:37:54;36.55;35.11;37.85;;
64077;Laerm;51039;49.696;10.808;2022-12-16T15:40:39;36.58;35.06;37.90;;
64077;Laerm;51039;49.696;10.808;2022-12-16T15:43:31;36.59;34.85;38.04;;
64077;Laerm;51039;49.696;10.808;2022-12-16T15:46:23;36.62;34.98;38.01;;
64077;Laerm;51039;49.696;10.808;2022-12-16T15:49:18;36.63;35.34;37.96;;
64077;Laerm;51039;49.696;10.808;2022-12-16T15:58:19;36.66;35.13;37.90;;
64077;Laerm;51039;49.696;10.808;2022-12-16T16:01:05;36.69;35.20;38.10;;
64077;Laerm;51039;49.696;10.808;2022-12-16T16:03:52;36.70;34.93;38.20;;
64077;Laerm;51039;49.696;10.808;2022-12-16T16:06:36;36.76;35.33;38.19;;
64077;Laerm;51039;49.696;10.808;2022-12-16T16:09:24;36.70;35.02;37.97;;
64077;Laerm;51039;49.696;10.808;2022-12-16T16:12:09;36.72;35.37;38.07;;
64077;Laerm;51039;49.696;10.808;2022-12-16T16:14:54;36.75;35.25;38.07;;
64077;Laerm;51039;49.696;10.808;2022-12-16T16:17:38;36.76;35.30;38.13;;